Time;durP1;ratioP1;P1;durP2;ratioP2;P2;SDS_P1;SDS_P2;PMS_P1;PMS_P2;Temp;Humidity;BMP_temperature;BMP_pressure;BME280_temperature;BME280_humidity;BME280_pressure;Samples;Min_cycle;Max_cycle;Signal;HPM_P1;HPM_P2
2022/10/06 00:01:58;;;;;;;4.87;4.47;;;;;;;;;;5049317;28;20453;-77
2022/10/06 00:04:25;;;;;;;3.80;3.50;;;;;;;;;;5048630;28;20441;-76
2022/10/06 00:06:52;;;;;;;4.03;3.40;;;;;;;;;;5049566;28;20441;-77
2022/10/06 00:09:19;;;;;;;4.00;3.70;;;;;;;;;;5049951;28;20477;-77
2022/10/06 00:11:46;;;;;;;5.00;4.40;;;;;;;;;;5050254;28;20445;-76
2022/10/06 00:14:13;;;;;;;4.40;4.00;;;;;;;;;;5048894;28;20827;-76
2022/10/06 00:16:40;;;;;;;8.43;3.43;;;;;;;;;;5048391;28;20449;-76
2022/10/06 00:19:09;;;;;;;3.93;3.53;;;;;;;;;;5049010;28;20449;-75
2022/10/06 00:21:36;;;;;;;3.50;3.30;;;;;;;;;;5048799;28;20438;-76
2022/10/06 00:24:03;;;;;;;4.13;3.60;;;;;;;;;;5048335;28;21022;-75
2022/10/06 00:26:30;;;;;;;4.30;3.90;;;;;;;;;;5048727;28;20945;-75
2022/10/06 00:28:57;;;;;;;9.77;3.93;;;;;;;;;;5048582;28;20441;-76
2022/10/06 00:31:24;;;;;;;4.67;4.27;;;;;;;;;;5048854;28;20449;-76
2022/10/06 00:33:51;;;;;;;3.43;3.13;;;;;;;;;;5047882;28;20478;-76
2022/10/06 00:36:20;;;;;;;3.93;3.60;;;;;;;;;;5048782;28;20450;-76
2022/10/06 00:38:47;;;;;;;4.67;3.70;;;;;;;;;;5048305;28;20452;-76
2022/10/06 00:41:16;;;;;;;3.90;3.50;;;;;;;;;;5048678;28;20465;-76
2022/10/06 00:43:51;;;;;;;6.27;4.00;;;;;;;;;;5047610;28;21227;-76
2022/10/06 00:46:24;;;;;;;5.67;3.73;;;;;;;;;;5048270;28;20779;-76
2022/10/06 00:48:54;;;;;;;3.60;3.30;;;;;;;;;;5048889;28;20452;-75
2022/10/06 00:51:22;;;;;;;3.83;3.50;;;;;;;;;;5048691;28;20570;-76
2022/10/06 00:53:50;;;;;;;4.37;4.07;;;;;;;;;;5048183;28;20488;-76
2022/10/06 00:56:17;;;;;;;3.83;3.40;;;;;;;;;;5048642;28;21280;-76
2022/10/06 00:58:44;;;;;;;8.40;3.90;;;;;;;;;;5048237;28;20453;-75
2022/10/06 01:01:12;;;;;;;3.60;3.30;;;;;;;;;;5048404;28;20468;-75
2022/10/06 01:03:40;;;;;;;3.93;3.17;;;;;;;;;;5047718;28;20438;-76
2022/10/06 01:06:08;;;;;;;3.90;3.50;;;;;;;;;;5048252;28;20809;-76
2022/10/06 01:08:37;;;;;;;3.87;3.57;;;;;;;;;;5047577;28;20453;-76
2022/10/06 01:11:04;;;;;;;4.07;3.77;;;;;;;;;;5047793;28;20841;-76
2022/10/06 01:13:31;;;;;;;4.03;3.73;;;;;;;;;;5044704;28;21036;-76
2022/10/06 01:16:02;;;;;;;3.93;3.53;;;;;;;;;;5048964;28;20450;-76
2022/10/06 01:18:30;;;;;;;4.70;3.60;;;;;;;;;;5048054;28;20446;-76
2022/10/06 01:21:00;;;;;;;4.07;3.63;;;;;;;;;;5039863;28;20453;-76
2022/10/06 01:23:31;;;;;;;4.40;3.83;;;;;;;;;;5037705;28;20832;-76
2022/10/06 01:25:58;;;;;;;3.50;3.30;;;;;;;;;;5048315;28;20789;-75
2022/10/06 01:28:26;;;;;;;4.30;3.93;;;;;;;;;;5048222;28;20442;-76
2022/10/06 01:30:55;;;;;;;4.37;3.97;;;;;;;;;;5048176;28;20462;-76
2022/10/06 01:33:23;;;;;;;4.47;4.07;;;;;;;;;;5046684;28;20508;-76
2022/10/06 01:35:51;;;;;;;5.63;3.80;;;;;;;;;;5047867;28;20840;-77
2022/10/06 01:38:18;;;;;;;5.47;5.00;;;;;;;;;;5047788;28;21001;-76
2022/10/06 01:40:47;;;;;;;4.30;3.90;;;;;;;;;;5047927;28;20509;-76
2022/10/06 01:43:14;;;;;;;5.00;4.57;;;;;;;;;;5047206;28;20814;-76
2022/10/06 01:45:41;;;;;;;4.87;4.33;;;;;;;;;;5033454;28;20946;-76
2022/10/06 01:48:08;;;;;;;7.40;5.10;;;;;;;;;;5045231;28;20934;-76
2022/10/06 01:50:35;;;;;;;5.80;5.30;;;;;;;;;;5034927;28;20462;-76
2022/10/06 01:53:03;;;;;;;5.40;4.90;;;;;;;;;;5042255;28;20484;-77
2022/10/06 01:55:30;;;;;;;5.57;4.83;;;;;;;;;;5044162;28;20433;-75
2022/10/06 01:57:58;;;;;;;5.00;4.60;;;;;;;;;;5044380;28;20435;-76
2022/10/06 02:00:25;;;;;;;6.13;5.40;;;;;;;;;;5038616;28;20473;-76
2022/10/06 02:02:52;;;;;;;6.03;5.47;;;;;;;;;;5042675;28;20446;-75
2022/10/06 02:05:20;;;;;;;6.20;5.47;;;;;;;;;;5042167;28;20781;-78
2022/10/06 02:07:47;;;;;;;5.83;4.83;;;;;;;;;;5046959;28;20457;-77
2022/10/06 02:10:14;;;;;;;5.57;5.00;;;;;;;;;;5046905;28;20466;-76
2022/10/06 02:12:41;;;;;;;5.53;5.03;;;;;;;;;;5046275;28;20625;-76
2022/10/06 02:15:10;;;;;;;5.20;4.70;;;;;;;;;;5047244;28;20445;-76
2022/10/06 02:17:37;;;;;;;5.73;5.23;;;;;;;;;;5047124;28;20445;-76
2022/10/06 02:20:04;;;;;;;4.53;4.23;;;;;;;;;;5047076;28;20555;-76
2022/10/06 02:22:32;;;;;;;5.90;5.23;;;;;;;;;;5046701;28;20448;-76
2022/10/06 02:24:59;;;;;;;6.53;5.27;;;;;;;;;;5047280;28;20445;-76
2022/10/06 02:27:26;;;;;;;7.90;5.40;;;;;;;;;;5046918;28;20525;-76
2022/10/06 02:29:54;;;;;;;5.50;4.90;;;;;;;;;;5047299;28;20462;-76
2022/10/06 02:32:23;;;;;;;5.60;5.17;;;;;;;;;;5047284;28;20445;-77
2022/10/06 02:34:50;;;;;;;9.10;5.80;;;;;;;;;;5046616;28;20773;-76
2022/10/06 02:37:17;;;;;;;5.80;4.80;;;;;;;;;;5047314;28;20442;-76
2022/10/06 02:39:44;;;;;;;7.30;5.20;;;;;;;;;;5048649;28;21203;-77
2022/10/06 02:42:11;;;;;;;5.30;4.90;;;;;;;;;;5050827;28;20964;-76
2022/10/06 02:44:38;;;;;;;7.93;6.50;;;;;;;;;;5050297;28;20433;-76
2022/10/06 02:47:05;;;;;;;5.80;5.30;;;;;;;;;;5050469;28;20473;-77
2022/10/06 02:49:34;;;;;;;5.70;5.20;;;;;;;;;;5046011;28;20478;-76
2022/10/06 02:52:01;;;;;;;7.53;5.57;;;;;;;;;;5046969;28;20818;-76
2022/10/06 02:54:28;;;;;;;7.60;5.77;;;;;;;;;;5049663;28;21027;-76
2022/10/06 02:56:55;;;;;;;7.43;5.13;;;;;;;;;;5050416;28;20456;-76
2022/10/06 02:59:22;;;;;;;5.50;5.10;;;;;;;;;;5050376;28;20489;-76
2022/10/06 03:01:49;;;;;;;6.40;5.10;;;;;;;;;;5050544;28;20760;-76
2022/10/06 03:04:16;;;;;;;5.60;5.10;;;;;;;;;;5049786;28;20537;-76
2022/10/06 03:06:45;;;;;;;6.70;4.90;;;;;;;;;;5050062;28;20445;-75
2022/10/06 03:09:12;;;;;;;5.40;4.90;;;;;;;;;;5049650;28;20449;-76
2022/10/06 03:11:40;;;;;;;9.20;5.40;;;;;;;;;;5050215;28;20438;-77
2022/10/06 03:14:07;;;;;;;6.00;5.20;;;;;;;;;;5049677;28;20481;-76
2022/10/06 03:16:36;;;;;;;6.37;5.77;;;;;;;;;;5050299;28;20441;-76
2022/10/06 03:19:03;;;;;;;5.93;4.60;;;;;;;;;;5049963;28;20449;-77
2022/10/06 03:21:31;;;;;;;5.67;5.00;;;;;;;;;;5050250;28;20539;-76
2022/10/06 03:24:00;;;;;;;5.17;4.77;;;;;;;;;;5049360;28;20818;-77
2022/10/06 03:26:28;;;;;;;5.10;4.70;;;;;;;;;;5050411;28;20446;-77
2022/10/06 03:28:55;;;;;;;5.57;5.07;;;;;;;;;;5050299;28;20453;-76
2022/10/06 03:31:23;;;;;;;5.47;5.00;;;;;;;;;;5050716;28;20454;-76
2022/10/06 03:33:50;;;;;;;7.40;5.53;;;;;;;;;;5050367;28;20473;-76
2022/10/06 03:36:18;;;;;;;6.07;5.33;;;;;;;;;;5050248;28;20457;-76
2022/10/06 03:38:45;;;;;;;5.37;4.87;;;;;;;;;;5049894;28;20929;-77
2022/10/06 03:41:14;;;;;;;5.60;5.17;;;;;;;;;;5050345;28;20811;-76
2022/10/06 03:43:43;;;;;;;6.50;5.17;;;;;;;;;;5050599;28;20778;-77
2022/10/06 03:46:11;;;;;;;5.53;5.03;;;;;;;;;;5050376;28;20457;-76
2022/10/06 03:48:38;;;;;;;5.90;5.40;;;;;;;;;;5049770;28;20455;-76
2022/10/06 03:51:07;;;;;;;8.03;5.93;;;;;;;;;;5049428;28;20466;-76
2022/10/06 03:53:35;;;;;;;6.37;4.83;;;;;;;;;;5048898;28;20473;-76
2022/10/06 03:56:02;;;;;;;6.27;5.77;;;;;;;;;;5049413;28;20870;-76
2022/10/06 03:58:32;;;;;;;6.20;5.60;;;;;;;;;;5049586;28;20445;-76
2022/10/06 04:01:00;;;;;;;5.80;5.40;;;;;;;;;;5049508;28;20470;-76
2022/10/06 04:03:27;;;;;;;5.43;4.93;;;;;;;;;;5048699;28;20442;-76
2022/10/06 04:05:55;;;;;;;5.50;5.10;;;;;;;;;;5049598;28;20450;-76
2022/10/06 04:08:22;;;;;;;5.20;4.80;;;;;;;;;;5050093;28;20457;-76
2022/10/06 04:10:49;;;;;;;5.40;5.00;;;;;;;;;;5051082;28;20544;-75
2022/10/06 04:13:16;;;;;;;5.40;5.00;;;;;;;;;;5030021;28;20945;-76
2022/10/06 04:15:45;;;;;;;5.27;4.87;;;;;;;;;;5030176;28;20450;-77
2022/10/06 04:18:12;;;;;;;6.90;5.67;;;;;;;;;;5030763;28;20954;-76
2022/10/06 04:20:39;;;;;;;6.60;5.70;;;;;;;;;;5030524;28;20482;-77
2022/10/06 04:23:06;;;;;;;5.70;5.20;;;;;;;;;;5029147;28;21162;-77
2022/10/06 04:25:34;;;;;;;5.70;5.20;;;;;;;;;;5029329;28;20951;-76
2022/10/06 04:28:01;;;;;;;6.13;5.50;;;;;;;;;;5029252;28;20470;-77
2022/10/06 04:30:29;;;;;;;6.30;5.50;;;;;;;;;;5029903;28;20470;-76
2022/10/06 04:32:57;;;;;;;5.80;4.70;;;;;;;;;;5029548;28;20446;-76
2022/10/06 04:35:26;;;;;;;6.27;5.67;;;;;;;;;;5028677;28;20485;-76
2022/10/06 04:37:55;;;;;;;5.80;5.30;;;;;;;;;;5029437;28;20454;-77
2022/10/06 04:40:22;;;;;;;6.77;5.33;;;;;;;;;;5029816;28;20466;-76
2022/10/06 04:42:49;;;;;;;7.07;5.37;;;;;;;;;;5028825;28;20449;-76
2022/10/06 04:45:16;;;;;;;7.37;5.57;;;;;;;;;;5029553;28;20473;-76
2022/10/06 04:47:43;;;;;;;10.63;5.70;;;;;;;;;;5029263;28;20445;-76
2022/10/06 04:50:12;;;;;;;9.80;5.97;;;;;;;;;;5029365;28;20466;-76
2022/10/06 04:52:39;;;;;;;9.40;5.40;;;;;;;;;;5028753;28;20458;-77
2022/10/06 04:55:06;;;;;;;6.53;5.90;;;;;;;;;;5028856;28;20482;-75
2022/10/06 04:57:33;;;;;;;7.30;6.70;;;;;;;;;;5028698;28;20460;-77
2022/10/06 05:02:45;;;;;;;6.27;5.20;;;;;;;;;;5028149;28;20442;-77
2022/10/06 05:05:14;;;;;;;5.80;5.20;;;;;;;;;;5029364;28;20442;-76
2022/10/06 05:07:41;;;;;;;6.83;5.53;;;;;;;;;;5028759;28;20469;-76
2022/10/06 05:10:08;;;;;;;7.10;6.50;;;;;;;;;;5028540;28;20474;-77
2022/10/06 05:12:35;;;;;;;7.17;6.47;;;;;;;;;;5028096;28;20449;-78
2022/10/06 05:15:02;;;;;;;7.73;6.20;;;;;;;;;;5028713;28;20481;-77
2022/10/06 05:17:29;;;;;;;7.03;6.30;;;;;;;;;;5028212;28;20450;-76
2022/10/06 05:19:56;;;;;;;8.40;6.20;;;;;;;;;;5028526;28;20462;-76
2022/10/06 05:22:25;;;;;;;9.17;6.13;;;;;;;;;;5028503;28;20446;-77
2022/10/06 05:24:52;;;;;;;7.30;6.60;;;;;;;;;;5027611;28;20443;-76
2022/10/06 05:27:20;;;;;;;7.30;6.60;;;;;;;;;;5027976;28;20459;-76
2022/10/06 05:29:47;;;;;;;6.80;6.10;;;;;;;;;;5028458;28;20494;-77
2022/10/06 05:32:14;;;;;;;7.20;5.90;;;;;;;;;;5028384;28;20762;-76
2022/10/06 05:34:41;;;;;;;8.60;5.90;;;;;;;;;;5027650;28;20863;-77
2022/10/06 05:37:08;;;;;;;7.00;6.50;;;;;;;;;;5027795;28;20449;-76
2022/10/06 05:39:36;;;;;;;6.83;5.83;;;;;;;;;;5028177;28;20462;-77
2022/10/06 05:42:03;;;;;;;67.77;60.37;;;;;;;;;;5028225;28;20446;-76
2022/10/06 05:44:31;;;;;;;18.27;13.00;;;;;;;;;;5027102;28;20453;-77
2022/10/06 05:46:58;;;;;;;7.60;6.90;;;;;;;;;;5027945;28;20938;-76
2022/10/06 05:49:25;;;;;;;7.10;6.50;;;;;;;;;;5027850;28;20466;-77
2022/10/06 05:51:52;;;;;;;11.73;7.00;;;;;;;;;;5028166;28;20458;-77
2022/10/06 05:54:19;;;;;;;9.93;7.00;;;;;;;;;;5026715;28;20586;-76
2022/10/06 05:56:48;;;;;;;8.93;6.37;;;;;;;;;;5028137;28;20454;-75
2022/10/06 05:59:15;;;;;;;7.00;6.23;;;;;;;;;;5027975;28;20457;-77
2022/10/06 06:01:43;;;;;;;8.40;6.30;;;;;;;;;;5027758;28;20794;-76
2022/10/06 06:04:10;;;;;;;9.17;6.50;;;;;;;;;;5027751;28;20826;-77
2022/10/06 06:06:38;;;;;;;10.20;6.40;;;;;;;;;;5028027;28;20454;-76
2022/10/06 06:09:06;;;;;;;8.93;8.13;;;;;;;;;;5027581;28;20481;-76
2022/10/06 06:11:34;;;;;;;8.40;6.47;;;;;;;;;;5033102;28;20503;-77
2022/10/06 06:14:05;;;;;;;8.87;7.20;;;;;;;;;;5049215;28;20484;-76
2022/10/06 06:16:31;;;;;;;9.17;5.27;;;;;;;;;;5051502;28;20446;-76
2022/10/06 06:18:58;;;;;;;7.73;5.77;;;;;;;;;;5052517;28;20469;-77
2022/10/06 06:21:26;;;;;;;6.53;5.93;;;;;;;;;;5055381;28;20778;-76
2022/10/06 06:23:53;;;;;;;7.10;5.30;;;;;;;;;;5056244;28;20474;-76
2022/10/06 06:26:22;;;;;;;6.83;6.13;;;;;;;;;;5071240;28;20447;-76
2022/10/06 06:28:50;;;;;;;9.63;6.67;;;;;;;;;;5070404;28;20441;-76
2022/10/06 06:31:20;;;;;;;7.70;6.30;;;;;;;;;;5053283;28;20505;-77
2022/10/06 06:33:47;;;;;;;9.43;6.63;;;;;;;;;;5051438;28;21089;-77
2022/10/06 06:36:16;;;;;;;10.30;6.90;;;;;;;;;;5055095;28;20452;-77
2022/10/06 06:38:43;;;;;;;11.80;6.60;;;;;;;;;;5060311;28;20467;-77
2022/10/06 06:41:13;;;;;;;8.70;6.40;;;;;;;;;;5052514;28;20980;-76
2022/10/06 06:43:41;;;;;;;9.20;6.83;;;;;;;;;;5051492;28;20444;-76
2022/10/06 06:46:08;;;;;;;10.80;7.20;;;;;;;;;;5052452;28;20437;-77
2022/10/06 06:48:36;;;;;;;14.20;6.80;;;;;;;;;;5052256;28;20445;-76
2022/10/06 06:51:04;;;;;;;9.17;6.37;;;;;;;;;;5052857;28;20461;-77
2022/10/06 06:53:31;;;;;;;9.87;7.53;;;;;;;;;;5051211;28;20452;-76
2022/10/06 06:55:58;;;;;;;8.90;7.27;;;;;;;;;;5051705;28;20988;-76
2022/10/06 06:58:26;;;;;;;9.93;6.50;;;;;;;;;;5050634;28;21012;-76
2022/10/06 07:00:53;;;;;;;8.47;6.17;;;;;;;;;;5051350;28;20496;-76
2022/10/06 07:03:21;;;;;;;8.93;6.47;;;;;;;;;;5051140;28;20953;-77
2022/10/06 07:05:49;;;;;;;10.47;7.33;;;;;;;;;;5051181;28;20746;-77
2022/10/06 07:08:19;;;;;;;12.40;7.27;;;;;;;;;;5050926;28;20972;-77
2022/10/06 07:10:47;;;;;;;11.20;6.77;;;;;;;;;;5050496;28;20470;-76
2022/10/06 07:13:15;;;;;;;8.70;6.90;;;;;;;;;;5030775;28;20454;-76
2022/10/06 07:26:44;;;;;;;7.80;5.77;;;;;;;;;;5030358;28;20458;-76
2022/10/06 07:29:11;;;;;;;6.40;5.30;;;;;;;;;;5031220;28;20442;-76
2022/10/06 07:31:42;;;;;;;7.50;5.57;;;;;;;;;;5030718;28;20879;-76
2022/10/06 07:34:09;;;;;;;6.53;4.80;;;;;;;;;;5030944;28;20435;-77
2022/10/06 07:36:37;;;;;;;5.47;4.20;;;;;;;;;;5030429;28;20454;-76
2022/10/06 07:39:04;;;;;;;5.47;4.10;;;;;;;;;;5030527;28;20450;-76
2022/10/06 07:41:32;;;;;;;5.50;4.10;;;;;;;;;;5030978;28;20449;-76
2022/10/06 07:43:59;;;;;;;6.30;4.00;;;;;;;;;;5031208;28;20842;-76
2022/10/06 07:46:26;;;;;;;6.20;3.80;;;;;;;;;;5030256;28;20942;-76
2022/10/06 07:48:53;;;;;;;4.93;3.80;;;;;;;;;;5030803;28;20478;-76
2022/10/06 07:51:20;;;;;;;5.17;3.10;;;;;;;;;;5030654;28;20465;-77
2022/10/06 07:53:50;;;;;;;5.10;3.03;;;;;;;;;;5029220;28;20558;-77
2022/10/06 07:56:19;;;;;;;7.77;3.40;;;;;;;;;;5030155;28;20607;-76
2022/10/06 07:58:46;;;;;;;8.33;3.03;;;;;;;;;;5030871;28;20941;-76
2022/10/06 08:01:14;;;;;;;5.67;3.07;;;;;;;;;;5030665;28;20469;-76
2022/10/06 08:03:42;;;;;;;3.53;2.97;;;;;;;;;;5029953;28;20439;-76
2022/10/06 08:06:11;;;;;;;32.13;7.03;;;;;;;;;;5030197;28;20450;-77
2022/10/06 08:08:38;;;;;;;5.30;2.47;;;;;;;;;;5029634;28;20462;-77
2022/10/06 08:11:07;;;;;;;10.97;3.00;;;;;;;;;;5034728;28;20473;-77
2022/10/06 08:13:35;;;;;;;6.63;3.27;;;;;;;;;;5048759;28;20530;-77
2022/10/06 08:16:06;;;;;;;6.20;2.60;;;;;;;;;;5049290;28;20531;-76
2022/10/06 08:18:33;;;;;;;24.03;5.40;;;;;;;;;;5048608;28;20827;-76
2022/10/06 08:21:00;;;;;;;21.00;4.50;;;;;;;;;;5049091;28;20985;-76
2022/10/06 08:23:27;;;;;;;10.13;3.80;;;;;;;;;;5048663;28;21055;-76
2022/10/06 08:25:55;;;;;;;5.63;3.00;;;;;;;;;;5048753;28;20551;-76
2022/10/06 08:28:24;;;;;;;3.67;2.37;;;;;;;;;;5049613;28;20453;-76
2022/10/06 08:30:51;;;;;;;6.17;2.83;;;;;;;;;;5049589;28;20457;-76
2022/10/06 08:33:19;;;;;;;4.20;2.43;;;;;;;;;;5049093;28;20479;-76
2022/10/06 08:35:46;;;;;;;4.97;2.40;;;;;;;;;;5049295;28;20564;-77
2022/10/06 08:38:13;;;;;;;5.90;2.93;;;;;;;;;;5047938;28;20956;-76
2022/10/06 08:40:42;;;;;;;16.43;3.80;;;;;;;;;;5048624;28;20474;-77
2022/10/06 08:43:13;;;;;;;11.23;3.23;;;;;;;;;;5048387;28;20851;-77
2022/10/06 08:45:44;;;;;;;11.40;4.03;;;;;;;;;;5048928;28;20450;-77
2022/10/06 08:48:13;;;;;;;4.07;2.77;;;;;;;;;;5049189;28;20452;-76
2022/10/06 08:50:54;;;;;;;6.27;2.40;;;;;;;;;;5048414;28;20557;-76
2022/10/06 08:53:26;;;;;;;3.13;2.67;;;;;;;;;;5048102;28;20472;-77
2022/10/06 08:55:55;;;;;;;8.07;4.23;;;;;;;;;;5048801;28;20477;-76
2022/10/06 08:58:31;;;;;;;8.37;3.30;;;;;;;;;;5048652;28;20529;-76
2022/10/06 09:01:03;;;;;;;5.97;2.50;;;;;;;;;;5048424;28;20468;-76
2022/10/06 09:03:30;;;;;;;5.23;2.60;;;;;;;;;;5047837;28;21016;-76
2022/10/06 09:05:59;;;;;;;8.70;2.40;;;;;;;;;;5048682;28;20450;-77
2022/10/06 09:08:34;;;;;;;8.53;2.27;;;;;;;;;;5048652;28;20464;-76
2022/10/06 09:11:08;;;;;;;2.50;1.60;;;;;;;;;;5047335;28;20879;-76
2022/10/06 09:13:38;;;;;;;3.90;1.90;;;;;;;;;;5027881;28;20821;-77
2022/10/06 09:16:08;;;;;;;2.23;1.90;;;;;;;;;;5028442;28;20497;-76
2022/10/06 09:18:38;;;;;;;2.50;1.90;;;;;;;;;;5028287;28;20958;-75
2022/10/06 09:21:07;;;;;;;5.13;1.87;;;;;;;;;;5028645;28;20489;-76
2022/10/06 09:26:17;;;;;;;4.50;2.17;;;;;;;;;;5035906;28;20430;-77
2022/10/06 09:28:45;;;;;;;2.57;1.77;;;;;;;;;;5049426;28;20437;-76
2022/10/06 09:31:19;;;;;;;5.13;1.97;;;;;;;;;;5051331;28;20848;-76
2022/10/06 09:33:46;;;;;;;5.43;2.10;;;;;;;;;;5054102;28;20448;-76
2022/10/06 09:36:14;;;;;;;2.70;1.80;;;;;;;;;;5058147;28;20496;-76
2022/10/06 09:38:51;;;;;;;2.77;1.90;;;;;;;;;;5057870;28;20445;-76
2022/10/06 09:41:18;;;;;;;7.90;1.97;;;;;;;;;;5055567;28;21030;-75
2022/10/06 09:43:53;;;;;;;26.57;4.10;;;;;;;;;;5055615;28;20449;-77
2022/10/06 09:46:22;;;;;;;4.50;2.07;;;;;;;;;;5055029;28;20437;-76
2022/10/06 09:49:06;;;;;;;13.33;2.37;;;;;;;;;;5053486;28;20449;-76
2022/10/06 09:51:36;;;;;;;3.30;2.07;;;;;;;;;;5057268;28;20858;-77
2022/10/06 09:54:10;;;;;;;4.10;2.00;;;;;;;;;;5055656;28;20460;-76
2022/10/06 09:56:43;;;;;;;3.33;2.23;;;;;;;;;;5055438;28;20477;-76
2022/10/06 09:59:20;;;;;;;5.20;2.17;;;;;;;;;;5056132;28;20911;-76
2022/10/06 10:01:54;;;;;;;6.90;2.87;;;;;;;;;;5054645;28;20445;-76
2022/10/06 10:04:23;;;;;;;1.60;1.50;;;;;;;;;;5054030;28;20941;-76
2022/10/06 10:06:52;;;;;;;4.27;2.07;;;;;;;;;;5054759;28;20437;-75
2022/10/06 10:09:25;;;;;;;1.70;1.37;;;;;;;;;;5053721;28;20905;-76
2022/10/06 10:14:47;;;;;;;3.67;2.07;;;;;;;;;;5053543;28;20412;-77
2022/10/06 10:17:17;;;;;;;4.50;2.30;;;;;;;;;;5054273;28;20980;-76
2022/10/06 10:19:51;;;;;;;4.07;1.97;;;;;;;;;;5054576;28;20850;-76
2022/10/06 10:22:22;;;;;;;2.27;1.60;;;;;;;;;;5054835;28;20469;-76
2022/10/06 10:24:54;;;;;;;16.53;3.00;;;;;;;;;;5053891;28;20513;-77
2022/10/06 10:27:23;;;;;;;9.47;2.80;;;;;;;;;;5053364;28;20448;-76
2022/10/06 10:30:00;;;;;;;30.90;5.20;;;;;;;;;;5053516;28;20511;-77
2022/10/06 10:32:33;;;;;;;19.50;3.90;;;;;;;;;;5052898;28;20445;-76
2022/10/06 10:35:03;;;;;;;4.17;1.77;;;;;;;;;;5055187;28;20820;-76
2022/10/06 10:37:34;;;;;;;4.47;2.00;;;;;;;;;;5053272;28;20793;-77
2022/10/06 10:40:02;;;;;;;5.10;1.87;;;;;;;;;;5053213;28;20465;-77
2022/10/06 10:42:31;;;;;;;4.23;2.60;;;;;;;;;;5052898;28;20445;-77
2022/10/06 10:45:00;;;;;;;2.83;1.73;;;;;;;;;;5053162;28;20448;-77
2022/10/06 10:47:30;;;;;;;8.43;2.43;;;;;;;;;;5054513;28;20452;-75
2022/10/06 10:50:03;;;;;;;2.17;1.47;;;;;;;;;;5054831;28;20461;-77
2022/10/06 10:52:33;;;;;;;7.47;2.40;;;;;;;;;;5053166;28;20450;-76
2022/10/06 10:55:04;;;;;;;8.40;1.67;;;;;;;;;;5053009;28;20548;-77
2022/10/06 10:57:35;;;;;;;3.73;1.80;;;;;;;;;;5053307;28;20465;-76
2022/10/06 11:00:06;;;;;;;3.87;1.90;;;;;;;;;;5051616;28;20461;-76
2022/10/06 11:02:34;;;;;;;3.67;1.90;;;;;;;;;;5052648;28;20456;-77
2022/10/06 11:05:04;;;;;;;3.20;1.50;;;;;;;;;;5053117;28;20537;-77
2022/10/06 11:07:34;;;;;;;5.30;1.83;;;;;;;;;;5052528;28;20460;-77
2022/10/06 11:10:03;;;;;;;2.83;1.73;;;;;;;;;;5053092;28;20465;-77
2022/10/06 11:12:46;;;;;;;6.07;2.17;;;;;;;;;;5052490;28;20441;-77
2022/10/06 11:15:18;;;;;;;3.53;1.83;;;;;;;;;;5053958;28;20937;-76
2022/10/06 11:17:48;;;;;;;4.63;2.30;;;;;;;;;;5054052;28;20441;-76
2022/10/06 11:20:25;;;;;;;5.83;2.63;;;;;;;;;;5065201;28;20458;-75
2022/10/06 11:22:54;;;;;;;8.33;2.00;;;;;;;;;;5070615;28;20870;-76
2022/10/06 11:25:24;;;;;;;4.70;1.67;;;;;;;;;;5067261;28;20440;-76
2022/10/06 11:27:55;;;;;;;3.00;1.53;;;;;;;;;;5056713;28;20442;-76
2022/10/06 11:30:25;;;;;;;5.97;1.80;;;;;;;;;;5064396;28;20476;-76
2022/10/06 11:33:00;;;;;;;4.77;1.63;;;;;;;;;;5068190;28;20446;-76
2022/10/06 11:35:33;;;;;;;6.63;2.00;;;;;;;;;;5071051;28;20513;-76
2022/10/06 11:38:02;;;;;;;6.93;1.93;;;;;;;;;;5060694;28;20449;-76
2022/10/06 11:40:37;;;;;;;3.23;1.50;;;;;;;;;;5052653;28;20964;-75
2022/10/06 11:43:09;;;;;;;5.97;1.73;;;;;;;;;;5051897;28;20584;-76
2022/10/06 11:45:41;;;;;;;5.47;1.70;;;;;;;;;;5052595;28;20446;-76
2022/10/06 11:48:20;;;;;;;1.97;1.87;;;;;;;;;;5053183;28;20444;-77
2022/10/06 11:50:51;;;;;;;3.70;1.90;;;;;;;;;;5053211;28;20476;-77
2022/10/06 11:53:27;;;;;;;8.10;1.73;;;;;;;;;;5053148;28;20451;-77
2022/10/06 11:56:13;;;;;;;4.23;1.47;;;;;;;;;;5051778;28;21018;-75
2022/10/06 11:58:55;;;;;;;5.17;2.00;;;;;;;;;;5051753;28;20453;-76
2022/10/06 12:01:37;;;;;;;5.03;1.63;;;;;;;;;;5052031;28;20461;-76
2022/10/06 12:04:12;;;;;;;2.33;1.30;;;;;;;;;;5051707;28;20461;-76
2022/10/06 12:07:06;;;;;;;1.83;1.30;;;;;;;;;;5052107;28;20432;-76
2022/10/06 12:09:48;;;;;;;6.00;1.80;;;;;;;;;;5052282;28;20988;-76
2022/10/06 12:12:34;;;;;;;4.50;1.90;;;;;;;;;;5040950;28;20444;-77
2022/10/06 12:15:04;;;;;;;4.63;1.80;;;;;;;;;;5031579;28;20446;-76
2022/10/06 12:17:34;;;;;;;3.10;1.30;;;;;;;;;;5032077;28;20469;-77
2022/10/06 12:20:09;;;;;;;5.13;1.53;;;;;;;;;;5031652;28;20474;-76
2022/10/06 12:22:39;;;;;;;5.00;1.77;;;;;;;;;;5030967;28;20465;-76
2022/10/06 12:25:11;;;;;;;3.47;1.87;;;;;;;;;;5031406;28;20454;-77
2022/10/06 12:27:42;;;;;;;6.03;1.40;;;;;;;;;;5031140;28;20439;-77
2022/10/06 12:30:20;;;;;;;5.83;1.80;;;;;;;;;;5031505;28;20470;-76
2022/10/06 12:32:50;;;;;;;5.63;2.13;;;;;;;;;;5031259;28;20449;-77
2022/10/06 12:35:23;;;;;;;2.97;1.60;;;;;;;;;;5032029;28;20439;-76
2022/10/06 12:37:51;;;;;;;7.53;1.77;;;;;;;;;;5031121;28;20489;-77
2022/10/06 12:40:37;;;;;;;2.10;1.57;;;;;;;;;;5031123;28;20531;-75
2022/10/06 12:43:11;;;;;;;3.40;1.63;;;;;;;;;;5030717;28;20450;-76
2022/10/06 12:45:40;;;;;;;2.97;1.40;;;;;;;;;;5031791;28;20427;-77
2022/10/06 12:48:12;;;;;;;3.13;2.07;;;;;;;;;;5031482;28;20450;-77
2022/10/06 12:50:41;;;;;;;2.60;1.80;;;;;;;;;;5030924;28;20570;-76
2022/10/06 12:53:13;;;;;;;3.23;1.50;;;;;;;;;;5030689;28;20454;-77
2022/10/06 12:55:43;;;;;;;3.97;1.80;;;;;;;;;;5030975;28;20454;-77
2022/10/06 12:58:17;;;;;;;2.37;1.60;;;;;;;;;;5031294;28;20438;-77
2022/10/06 13:00:45;;;;;;;4.47;1.60;;;;;;;;;;5031279;28;20513;-76
2022/10/06 13:03:17;;;;;;;6.03;1.60;;;;;;;;;;5029894;28;20462;-77
2022/10/06 13:05:50;;;;;;;3.93;1.60;;;;;;;;;;5030566;28;20953;-76
2022/10/06 13:08:22;;;;;;;2.87;1.50;;;;;;;;;;5030369;28;20450;-75
2022/10/06 13:10:49;;;;;;;4.40;1.90;;;;;;;;;;5030925;28;20478;-76
2022/10/06 13:13:22;;;;;;;5.30;2.13;;;;;;;;;;5049321;28;20446;-76
2022/10/06 13:15:54;;;;;;;3.03;1.50;;;;;;;;;;5050695;28;20476;-76
2022/10/06 13:18:22;;;;;;;4.33;2.23;;;;;;;;;;5050796;28;20453;-76
2022/10/06 13:20:50;;;;;;;2.30;1.50;;;;;;;;;;5050459;28;20465;-76
2022/10/06 13:23:25;;;;;;;2.33;1.70;;;;;;;;;;5048915;28;20982;-77
2022/10/06 13:25:56;;;;;;;2.23;1.70;;;;;;;;;;5050347;28;20540;-76
2022/10/06 13:28:25;;;;;;;3.83;1.90;;;;;;;;;;5050189;28;20445;-77
2022/10/06 13:30:54;;;;;;;3.70;1.73;;;;;;;;;;5050685;28;20496;-76
2022/10/06 13:33:21;;;;;;;4.33;1.57;;;;;;;;;;5049615;28;20825;-76
2022/10/06 13:35:50;;;;;;;7.60;2.00;;;;;;;;;;5050280;28;20449;-76
2022/10/06 13:38:17;;;;;;;3.03;1.37;;;;;;;;;;5049698;28;20489;-77
2022/10/06 13:40:44;;;;;;;9.27;1.97;;;;;;;;;;5049813;28;20504;-76
2022/10/06 13:43:15;;;;;;;2.80;1.50;;;;;;;;;;5049500;28;20445;-76
2022/10/06 13:45:43;;;;;;;2.30;1.33;;;;;;;;;;5050380;28;20436;-76
2022/10/06 13:48:14;;;;;;;13.13;2.47;;;;;;;;;;5049865;28;20442;-75
2022/10/06 13:50:45;;;;;;;5.87;2.00;;;;;;;;;;5049436;28;20828;-76
2022/10/06 13:53:24;;;;;;;4.20;2.17;;;;;;;;;;5049095;28;20442;-76
2022/10/06 13:55:51;;;;;;;6.60;2.50;;;;;;;;;;5049914;28;20980;-75
2022/10/06 13:58:21;;;;;;;4.10;1.47;;;;;;;;;;5050237;28;20488;-76
2022/10/06 14:00:54;;;;;;;4.83;1.80;;;;;;;;;;5049963;28;20862;-76
2022/10/06 14:03:24;;;;;;;4.17;1.73;;;;;;;;;;5049265;28;20964;-75
2022/10/06 14:05:52;;;;;;;3.47;1.90;;;;;;;;;;5050227;28;20801;-75
2022/10/06 14:08:24;;;;;;;2.57;1.40;;;;;;;;;;5050205;28;21063;-76
2022/10/06 14:10:52;;;;;;;4.13;2.10;;;;;;;;;;5050228;28;20461;-76
2022/10/06 14:13:21;;;;;;;3.17;1.70;;;;;;;;;;5029920;28;20455;-75
2022/10/06 14:15:49;;;;;;;3.33;1.57;;;;;;;;;;5030275;28;20455;-76
2022/10/06 14:18:18;;;;;;;5.30;2.20;;;;;;;;;;5030687;28;20878;-76
2022/10/06 14:20:47;;;;;;;6.03;1.80;;;;;;;;;;5030105;28;20978;-76
2022/10/06 14:23:33;;;;;;;2.10;1.60;;;;;;;;;;5029438;28;20469;-76
2022/10/06 14:26:01;;;;;;;2.03;1.53;;;;;;;;;;5029637;28;20450;-75
2022/10/06 14:28:28;;;;;;;4.00;1.47;;;;;;;;;;5029357;28;20443;-76
2022/10/06 14:30:56;;;;;;;6.70;2.00;;;;;;;;;;5030212;28;20466;-76
2022/10/06 14:33:26;;;;;;;6.27;1.93;;;;;;;;;;5029472;28;20446;-77
2022/10/06 14:35:56;;;;;;;4.27;1.50;;;;;;;;;;5032978;28;20442;-76
2022/10/06 14:38:24;;;;;;;2.93;1.70;;;;;;;;;;5032953;28;20569;-75
2022/10/06 14:40:51;;;;;;;4.30;2.40;;;;;;;;;;5032851;28;20557;-75
2022/10/06 14:43:18;;;;;;;3.87;2.03;;;;;;;;;;5032639;28;20443;-76
2022/10/06 14:45:45;;;;;;;2.50;1.80;;;;;;;;;;5033012;28;20802;-76
2022/10/06 14:48:14;;;;;;;6.80;1.90;;;;;;;;;;5033081;28;20468;-76
2022/10/06 14:50:45;;;;;;;4.77;1.77;;;;;;;;;;5032821;28;20473;-76
2022/10/06 14:53:16;;;;;;;4.57;1.70;;;;;;;;;;5032847;28;20924;-76
2022/10/06 14:55:44;;;;;;;4.33;1.60;;;;;;;;;;5032557;28;20455;-76
2022/10/06 14:58:11;;;;;;;5.43;2.70;;;;;;;;;;5033851;28;20497;-77
2022/10/06 15:00:41;;;;;;;3.37;1.60;;;;;;;;;;5040585;28;21008;-76
2022/10/06 15:03:08;;;;;;;3.27;1.80;;;;;;;;;;5032194;28;20454;-77
2022/10/06 15:08:08;;;;;;;6.90;2.33;;;;;;;;;;5033053;28;20438;-76
2022/10/06 15:08:23;;;;;;;4.60;2.03;;;;;;;;;;5032317;28;20850;-76
2022/10/06 15:10:54;;;;;;;3.23;1.63;;;;;;;;;;5033001;28;20451;-75
2022/10/06 15:13:21;;;;;;;4.20;1.40;;;;;;;;;;5032362;28;20439;-76
2022/10/06 15:15:49;;;;;;;4.50;2.07;;;;;;;;;;5032940;28;20447;-76